sensor_id;sensor_type;location;lat;lon;timestamp;P1;durP1;ratioP1;P2;durP2;ratioP2
7444;SDS011;3764;48.126;11.594;2022-09-21T00:00:21;5.45;;;3.80;;
7444;SDS011;3764;48.126;11.594;2022-09-21T00:02:50;5.70;;;4.45;;
7444;SDS011;3764;48.126;11.594;2022-09-21T00:05:20;4.05;;;3.53;;
7444;SDS011;3764;48.126;11.594;2022-09-21T00:07:47;5.15;;;4.10;;
7444;SDS011;3764;48.126;11.594;2022-09-21T00:10:14;11.00;;;4.35;;
7444;SDS011;3764;48.126;11.594;2022-09-21T00:12:44;6.47;;;4.38;;
7444;SDS011;3764;48.126;11.594;2022-09-21T00:15:13;5.82;;;3.92;;
7444;SDS011;3764;48.126;11.594;2022-09-21T00:17:43;6.18;;;3.65;;
7444;SDS011;3764;48.126;11.594;2022-09-21T00:20:13;7.85;;;4.32;;
7444;SDS011;3764;48.126;11.594;2022-09-21T00:22:40;9.48;;;3.90;;
7444;SDS011;3764;48.126;11.594;2022-09-21T00:25:08;6.18;;;3.90;;
7444;SDS011;3764;48.126;11.594;2022-09-21T00:27:35;6.93;;;3.65;;
7444;SDS011;3764;48.126;11.594;2022-09-21T00:30:02;6.57;;;4.03;;
7444;SDS011;3764;48.126;11.594;2022-09-21T00:32:31;4.72;;;3.60;;
7444;SDS011;3764;48.126;11.594;2022-09-21T00:34:59;6.50;;;3.90;;
7444;SDS011;3764;48.126;11.594;2022-09-21T00:37:28;5.70;;;3.42;;
7444;SDS011;3764;48.126;11.594;2022-09-21T00:39:56;4.95;;;3.45;;
7444;SDS011;3764;48.126;11.594;2022-09-21T00:42:24;5.35;;;3.80;;
7444;SDS011;3764;48.126;11.594;2022-09-21T00:44:53;4.38;;;3.28;;
7444;SDS011;3764;48.126;11.594;2022-09-21T00:47:21;5.68;;;3.55;;
7444;SDS011;3764;48.126;11.594;2022-09-21T00:49:52;4.60;;;3.30;;
7444;SDS011;3764;48.126;11.594;2022-09-21T00:52:22;5.20;;;3.97;;
7444;SDS011;3764;48.126;11.594;2022-09-21T00:54:52;6.18;;;3.75;;
7444;SDS011;3764;48.126;11.594;2022-09-21T00:57:22;5.85;;;3.40;;
7444;SDS011;3764;48.126;11.594;2022-09-21T00:59:52;5.57;;;3.72;;
7444;SDS011;3764;48.126;11.594;2022-09-21T01:02:22;8.40;;;3.92;;
7444;SDS011;3764;48.126;11.594;2022-09-21T01:04:51;4.32;;;3.35;;
7444;SDS011;3764;48.126;11.594;2022-09-21T01:07:19;7.03;;;4.38;;
7444;SDS011;3764;48.126;11.594;2022-09-21T01:09:52;6.95;;;3.60;;
7444;SDS011;3764;48.126;11.594;2022-09-21T01:12:29;5.47;;;3.78;;
7444;SDS011;3764;48.126;11.594;2022-09-21T01:15:18;4.40;;;3.30;;
7444;SDS011;3764;48.126;11.594;2022-09-21T01:17:57;4.15;;;3.45;;
7444;SDS011;3764;48.126;11.594;2022-09-21T01:20:38;6.30;;;2.53;;
7444;SDS011;3764;48.126;11.594;2022-09-21T01:23:22;4.88;;;3.15;;
7444;SDS011;3764;48.126;11.594;2022-09-21T01:26:14;7.72;;;3.25;;
7444;SDS011;3764;48.126;11.594;2022-09-21T01:29:09;3.90;;;2.95;;
7444;SDS011;3764;48.126;11.594;2022-09-21T01:31:44;4.63;;;3.15;;
7444;SDS011;3764;48.126;11.594;2022-09-21T01:34:29;5.25;;;3.42;;
7444;SDS011;3764;48.126;11.594;2022-09-21T01:37:02;3.92;;;2.90;;
7444;SDS011;3764;48.126;11.594;2022-09-21T01:39:33;3.72;;;3.10;;
7444;SDS011;3764;48.126;11.594;2022-09-21T01:42:04;5.63;;;2.42;;
7444;SDS011;3764;48.126;11.594;2022-09-21T01:44:34;4.65;;;3.22;;
7444;SDS011;3764;48.126;11.594;2022-09-21T01:47:03;6.95;;;3.60;;
7444;SDS011;3764;48.126;11.594;2022-09-21T01:49:37;3.90;;;3.17;;
7444;SDS011;3764;48.126;11.594;2022-09-21T01:52:10;3.83;;;2.90;;
7444;SDS011;3764;48.126;11.594;2022-09-21T01:54:40;4.68;;;4.00;;
7444;SDS011;3764;48.126;11.594;2022-09-21T01:57:13;5.15;;;3.25;;
7444;SDS011;3764;48.126;11.594;2022-09-21T01:59:48;4.78;;;3.58;;
7444;SDS011;3764;48.126;11.594;2022-09-21T02:02:20;5.07;;;3.30;;
7444;SDS011;3764;48.126;11.594;2022-09-21T02:04:56;5.05;;;3.42;;
7444;SDS011;3764;48.126;11.594;2022-09-21T02:07:25;6.43;;;3.80;;
7444;SDS011;3764;48.126;11.594;2022-09-21T02:09:53;8.00;;;3.50;;
7444;SDS011;3764;48.126;11.594;2022-09-21T02:12:21;6.85;;;3.33;;
7444;SDS011;3764;48.126;11.594;2022-09-21T02:14:49;4.57;;;3.25;;
7444;SDS011;3764;48.126;11.594;2022-09-21T02:17:29;10.00;;;3.38;;
7444;SDS011;3764;48.126;11.594;2022-09-21T02:20:06;4.05;;;3.35;;
7444;SDS011;3764;48.126;11.594;2022-09-21T02:22:44;3.83;;;3.38;;
7444;SDS011;3764;48.126;11.594;2022-09-21T02:25:24;7.95;;;3.38;;
7444;SDS011;3764;48.126;11.594;2022-09-21T02:28:00;4.85;;;2.75;;
7444;SDS011;3764;48.126;11.594;2022-09-21T02:30:34;3.88;;;3.50;;
7444;SDS011;3764;48.126;11.594;2022-09-21T02:33:05;6.82;;;3.22;;
7444;SDS011;3764;48.126;11.594;2022-09-21T02:35:37;3.15;;;2.85;;
7444;SDS011;3764;48.126;11.594;2022-09-21T02:38:10;3.33;;;2.60;;
7444;SDS011;3764;48.126;11.594;2022-09-21T02:40:47;5.47;;;3.55;;
7444;SDS011;3764;48.126;11.594;2022-09-21T02:43:20;3.80;;;3.00;;
7444;SDS011;3764;48.126;11.594;2022-09-21T02:45:55;5.03;;;3.38;;
7444;SDS011;3764;48.126;11.594;2022-09-21T02:48:25;3.72;;;2.72;;
7444;SDS011;3764;48.126;11.594;2022-09-21T02:50:57;7.25;;;2.60;;
7444;SDS011;3764;48.126;11.594;2022-09-21T02:53:29;5.28;;;3.20;;
7444;SDS011;3764;48.126;11.594;2022-09-21T02:56:00;6.35;;;3.53;;
7444;SDS011;3764;48.126;11.594;2022-09-21T02:58:31;7.97;;;3.08;;
7444;SDS011;3764;48.126;11.594;2022-09-21T03:01:04;5.82;;;3.10;;
7444;SDS011;3764;48.126;11.594;2022-09-21T03:03:33;3.38;;;2.80;;
7444;SDS011;3764;48.126;11.594;2022-09-21T03:06:00;4.90;;;2.55;;
7444;SDS011;3764;48.126;11.594;2022-09-21T03:08:28;4.50;;;3.00;;
7444;SDS011;3764;48.126;11.594;2022-09-21T03:10:55;6.15;;;3.33;;
7444;SDS011;3764;48.126;11.594;2022-09-21T03:13:23;5.75;;;2.90;;
7444;SDS011;3764;48.126;11.594;2022-09-21T03:15:57;6.15;;;3.30;;
7444;SDS011;3764;48.126;11.594;2022-09-21T03:18:26;4.65;;;3.13;;
7444;SDS011;3764;48.126;11.594;2022-09-21T03:20:53;4.38;;;2.70;;
7444;SDS011;3764;48.126;11.594;2022-09-21T03:23:20;3.13;;;2.92;;
7444;SDS011;3764;48.126;11.594;2022-09-21T03:25:47;2.83;;;2.50;;
7444;SDS011;3764;48.126;11.594;2022-09-21T03:28:16;5.65;;;3.63;;
7444;SDS011;3764;48.126;11.594;2022-09-21T03:30:44;3.65;;;3.10;;
7444;SDS011;3764;48.126;11.594;2022-09-21T03:33:11;3.47;;;2.80;;
7444;SDS011;3764;48.126;11.594;2022-09-21T03:35:40;3.97;;;2.85;;
7444;SDS011;3764;48.126;11.594;2022-09-21T03:38:07;6.20;;;3.03;;
7444;SDS011;3764;48.126;11.594;2022-09-21T03:40:34;4.18;;;3.22;;
7444;SDS011;3764;48.126;11.594;2022-09-21T03:43:02;4.25;;;3.00;;
7444;SDS011;3764;48.126;11.594;2022-09-21T03:45:29;3.60;;;2.50;;
7444;SDS011;3764;48.126;11.594;2022-09-21T03:47:57;4.25;;;2.67;;
7444;SDS011;3764;48.126;11.594;2022-09-21T03:50:25;4.97;;;3.45;;
7444;SDS011;3764;48.126;11.594;2022-09-21T03:52:55;4.18;;;3.78;;
7444;SDS011;3764;48.126;11.594;2022-09-21T03:55:23;4.70;;;3.30;;
7444;SDS011;3764;48.126;11.594;2022-09-21T03:57:50;4.25;;;2.65;;
7444;SDS011;3764;48.126;11.594;2022-09-21T04:00:17;5.40;;;3.33;;
7444;SDS011;3764;48.126;11.594;2022-09-21T04:02:44;3.03;;;2.72;;
7444;SDS011;3764;48.126;11.594;2022-09-21T04:05:13;7.25;;;3.53;;
7444;SDS011;3764;48.126;11.594;2022-09-21T04:07:41;5.70;;;2.90;;
7444;SDS011;3764;48.126;11.594;2022-09-21T04:10:12;3.90;;;3.28;;
7444;SDS011;3764;48.126;11.594;2022-09-21T04:12:40;4.95;;;3.10;;
7444;SDS011;3764;48.126;11.594;2022-09-21T04:15:09;3.67;;;2.78;;
7444;SDS011;3764;48.126;11.594;2022-09-21T04:17:37;4.45;;;2.90;;
7444;SDS011;3764;48.126;11.594;2022-09-21T04:20:04;3.33;;;2.95;;
7444;SDS011;3764;48.126;11.594;2022-09-21T04:22:33;3.25;;;2.67;;
7444;SDS011;3764;48.126;11.594;2022-09-21T04:25:00;7.22;;;3.35;;
7444;SDS011;3764;48.126;11.594;2022-09-21T04:27:29;4.30;;;2.75;;
7444;SDS011;3764;48.126;11.594;2022-09-21T04:29:56;5.10;;;3.22;;
7444;SDS011;3764;48.126;11.594;2022-09-21T04:32:24;3.40;;;2.65;;
7444;SDS011;3764;48.126;11.594;2022-09-21T04:34:51;3.05;;;2.53;;
7444;SDS011;3764;48.126;11.594;2022-09-21T04:37:18;5.25;;;3.30;;
7444;SDS011;3764;48.126;11.594;2022-09-21T04:39:45;5.55;;;3.40;;
7444;SDS011;3764;48.126;11.594;2022-09-21T04:42:12;4.13;;;2.72;;
7444;SDS011;3764;48.126;11.594;2022-09-21T04:44:40;5.13;;;3.63;;
7444;SDS011;3764;48.126;11.594;2022-09-21T04:47:08;3.75;;;3.10;;
7444;SDS011;3764;48.126;11.594;2022-09-21T04:49:35;5.32;;;2.92;;
7444;SDS011;3764;48.126;11.594;2022-09-21T04:52:02;4.35;;;3.15;;
7444;SDS011;3764;48.126;11.594;2022-09-21T04:54:30;4.57;;;3.03;;
7444;SDS011;3764;48.126;11.594;2022-09-21T04:56:57;4.15;;;3.78;;
7444;SDS011;3764;48.126;11.594;2022-09-21T04:59:24;4.88;;;3.30;;
7444;SDS011;3764;48.126;11.594;2022-09-21T05:01:52;6.35;;;4.07;;
7444;SDS011;3764;48.126;11.594;2022-09-21T05:04:19;4.82;;;3.60;;
7444;SDS011;3764;48.126;11.594;2022-09-21T05:06:46;8.25;;;3.53;;
7444;SDS011;3764;48.126;11.594;2022-09-21T05:09:14;6.22;;;3.35;;
7444;SDS011;3764;48.126;11.594;2022-09-21T05:11:59;9.02;;;3.65;;
7444;SDS011;3764;48.126;11.594;2022-09-21T05:14:27;4.20;;;3.50;;
7444;SDS011;3764;48.126;11.594;2022-09-21T05:16:55;3.97;;;3.17;;
7444;SDS011;3764;48.126;11.594;2022-09-21T05:19:22;6.43;;;3.78;;
7444;SDS011;3764;48.126;11.594;2022-09-21T05:21:49;4.45;;;3.55;;
7444;SDS011;3764;48.126;11.594;2022-09-21T05:24:16;4.82;;;3.35;;
7444;SDS011;3764;48.126;11.594;2022-09-21T05:26:43;5.00;;;3.97;;
7444;SDS011;3764;48.126;11.594;2022-09-21T05:29:11;9.00;;;3.80;;
7444;SDS011;3764;48.126;11.594;2022-09-21T05:31:40;4.75;;;3.80;;
7444;SDS011;3764;48.126;11.594;2022-09-21T05:34:20;4.38;;;3.67;;
7444;SDS011;3764;48.126;11.594;2022-09-21T05:36:59;4.88;;;4.38;;
7444;SDS011;3764;48.126;11.594;2022-09-21T05:39:30;8.55;;;4.22;;
7444;SDS011;3764;48.126;11.594;2022-09-21T05:41:58;7.35;;;4.18;;
7444;SDS011;3764;48.126;11.594;2022-09-21T05:44:25;7.97;;;5.15;;
7444;SDS011;3764;48.126;11.594;2022-09-21T05:46:54;8.20;;;4.63;;
7444;SDS011;3764;48.126;11.594;2022-09-21T05:49:31;5.18;;;4.68;;
7444;SDS011;3764;48.126;11.594;2022-09-21T05:52:08;5.80;;;4.65;;
7444;SDS011;3764;48.126;11.594;2022-09-21T05:54:44;14.55;;;5.10;;
7444;SDS011;3764;48.126;11.594;2022-09-21T05:57:22;6.40;;;4.25;;
7444;SDS011;3764;48.126;11.594;2022-09-21T06:00:03;5.15;;;4.65;;
7444;SDS011;3764;48.126;11.594;2022-09-21T06:02:59;7.03;;;5.13;;
7444;SDS011;3764;48.126;11.594;2022-09-21T06:05:45;8.45;;;4.35;;
7444;SDS011;3764;48.126;11.594;2022-09-21T06:08:12;8.25;;;4.88;;
7444;SDS011;3764;48.126;11.594;2022-09-21T06:10:39;7.93;;;4.25;;
7444;SDS011;3764;48.126;11.594;2022-09-21T06:13:06;7.13;;;3.70;;
7444;SDS011;3764;48.126;11.594;2022-09-21T06:15:33;8.18;;;4.75;;
7444;SDS011;3764;48.126;11.594;2022-09-21T06:18:02;5.45;;;3.97;;
7444;SDS011;3764;48.126;11.594;2022-09-21T06:20:29;5.70;;;4.55;;
7444;SDS011;3764;48.126;11.594;2022-09-21T06:23:00;6.18;;;4.00;;
7444;SDS011;3764;48.126;11.594;2022-09-21T06:25:27;11.05;;;5.18;;
7444;SDS011;3764;48.126;11.594;2022-09-21T06:27:54;7.03;;;4.88;;
7444;SDS011;3764;48.126;11.594;2022-09-21T06:30:26;8.30;;;5.45;;
7444;SDS011;3764;48.126;11.594;2022-09-21T06:32:53;9.98;;;5.28;;
7444;SDS011;3764;48.126;11.594;2022-09-21T06:35:23;7.65;;;4.65;;
7444;SDS011;3764;48.126;11.594;2022-09-21T06:37:50;9.13;;;4.80;;
7444;SDS011;3764;48.126;11.594;2022-09-21T06:40:19;6.40;;;5.28;;
7444;SDS011;3764;48.126;11.594;2022-09-21T06:42:46;6.05;;;4.40;;
7444;SDS011;3764;48.126;11.594;2022-09-21T06:45:13;8.50;;;4.40;;
7444;SDS011;3764;48.126;11.594;2022-09-21T06:47:45;6.15;;;4.20;;
7444;SDS011;3764;48.126;11.594;2022-09-21T06:50:12;5.32;;;4.07;;
7444;SDS011;3764;48.126;11.594;2022-09-21T06:52:39;5.72;;;4.40;;
7444;SDS011;3764;48.126;11.594;2022-09-21T06:55:07;5.20;;;4.47;;
7444;SDS011;3764;48.126;11.594;2022-09-21T06:57:36;8.60;;;4.53;;
7444;SDS011;3764;48.126;11.594;2022-09-21T07:00:05;5.57;;;4.07;;
7444;SDS011;3764;48.126;11.594;2022-09-21T07:02:33;7.03;;;4.70;;
7444;SDS011;3764;48.126;11.594;2022-09-21T07:05:00;6.47;;;4.63;;
7444;SDS011;3764;48.126;11.594;2022-09-21T07:07:28;8.52;;;4.15;;
7444;SDS011;3764;48.126;11.594;2022-09-21T07:09:55;5.90;;;4.82;;
7444;SDS011;3764;48.126;11.594;2022-09-21T07:12:26;6.13;;;4.43;;
7444;SDS011;3764;48.126;11.594;2022-09-21T07:14:55;9.55;;;5.00;;
7444;SDS011;3764;48.126;11.594;2022-09-21T07:17:22;9.07;;;4.50;;
7444;SDS011;3764;48.126;11.594;2022-09-21T07:19:49;6.00;;;5.25;;
7444;SDS011;3764;48.126;11.594;2022-09-21T07:22:16;8.27;;;4.45;;
7444;SDS011;3764;48.126;11.594;2022-09-21T07:24:43;4.25;;;3.47;;
7444;SDS011;3764;48.126;11.594;2022-09-21T07:27:10;7.10;;;3.78;;
7444;SDS011;3764;48.126;11.594;2022-09-21T07:29:37;7.03;;;3.80;;
7444;SDS011;3764;48.126;11.594;2022-09-21T07:32:05;6.80;;;4.20;;
7444;SDS011;3764;48.126;11.594;2022-09-21T07:34:34;6.70;;;3.28;;
7444;SDS011;3764;48.126;11.594;2022-09-21T07:37:02;11.60;;;4.93;;
7444;SDS011;3764;48.126;11.594;2022-09-21T07:39:29;7.05;;;3.10;;
7444;SDS011;3764;48.126;11.594;2022-09-21T07:41:56;5.03;;;3.42;;
7444;SDS011;3764;48.126;11.594;2022-09-21T07:44:23;6.05;;;3.83;;
7444;SDS011;3764;48.126;11.594;2022-09-21T07:46:51;3.97;;;3.08;;
7444;SDS011;3764;48.126;11.594;2022-09-21T07:49:19;3.83;;;3.25;;
7444;SDS011;3764;48.126;11.594;2022-09-21T07:51:46;5.35;;;3.20;;
7444;SDS011;3764;48.126;11.594;2022-09-21T07:54:13;2.30;;;2.05;;
7444;SDS011;3764;48.126;11.594;2022-09-21T07:56:41;2.50;;;1.98;;
7444;SDS011;3764;48.126;11.594;2022-09-21T07:59:28;3.00;;;2.35;;
7444;SDS011;3764;48.126;11.594;2022-09-21T08:01:57;4.72;;;2.03;;
7444;SDS011;3764;48.126;11.594;2022-09-21T08:04:25;2.67;;;1.90;;
7444;SDS011;3764;48.126;11.594;2022-09-21T08:06:52;2.00;;;1.40;;
7444;SDS011;3764;48.126;11.594;2022-09-21T08:09:19;4.22;;;1.77;;
7444;SDS011;3764;48.126;11.594;2022-09-21T08:11:47;4.88;;;1.77;;
7444;SDS011;3764;48.126;11.594;2022-09-21T08:14:16;2.17;;;1.60;;
7444;SDS011;3764;48.126;11.594;2022-09-21T08:16:44;2.95;;;1.88;;
7444;SDS011;3764;48.126;11.594;2022-09-21T08:19:13;2.08;;;1.75;;
7444;SDS011;3764;48.126;11.594;2022-09-21T08:21:42;4.95;;;3.40;;
7444;SDS011;3764;48.126;11.594;2022-09-21T08:24:11;4.30;;;2.30;;
7444;SDS011;3764;48.126;11.594;2022-09-21T08:26:38;3.75;;;2.78;;
7444;SDS011;3764;48.126;11.594;2022-09-21T08:29:05;2.95;;;2.05;;
7444;SDS011;3764;48.126;11.594;2022-09-21T08:31:32;2.60;;;1.90;;
7444;SDS011;3764;48.126;11.594;2022-09-21T08:33:59;3.05;;;1.70;;
7444;SDS011;3764;48.126;11.594;2022-09-21T08:36:26;3.03;;;1.58;;
7444;SDS011;3764;48.126;11.594;2022-09-21T08:38:55;2.80;;;1.73;;
7444;SDS011;3764;48.126;11.594;2022-09-21T08:41:23;2.08;;;1.40;;
7444;SDS011;3764;48.126;11.594;2022-09-21T08:44:10;2.10;;;1.55;;
7444;SDS011;3764;48.126;11.594;2022-09-21T08:46:40;1.55;;;1.17;;
7444;SDS011;3764;48.126;11.594;2022-09-21T08:49:10;2.00;;;1.40;;
7444;SDS011;3764;48.126;11.594;2022-09-21T08:51:43;1.92;;;1.00;;
7444;SDS011;3764;48.126;11.594;2022-09-21T08:54:18;4.78;;;1.30;;
7444;SDS011;3764;48.126;11.594;2022-09-21T08:56:52;3.05;;;1.55;;
7444;SDS011;3764;48.126;11.594;2022-09-21T08:59:19;1.92;;;1.23;;
7444;SDS011;3764;48.126;11.594;2022-09-21T09:01:54;3.10;;;1.75;;
7444;SDS011;3764;48.126;11.594;2022-09-21T09:04:30;2.72;;;1.67;;
7444;SDS011;3764;48.126;11.594;2022-09-21T09:07:14;3.65;;;1.52;;
7444;SDS011;3764;48.126;11.594;2022-09-21T09:09:56;1.90;;;1.40;;
7444;SDS011;3764;48.126;11.594;2022-09-21T09:12:35;2.42;;;1.30;;
7444;SDS011;3764;48.126;11.594;2022-09-21T09:15:20;3.08;;;1.92;;
7444;SDS011;3764;48.126;11.594;2022-09-21T09:18:01;2.15;;;1.55;;
7444;SDS011;3764;48.126;11.594;2022-09-21T09:20:35;3.50;;;1.45;;
7444;SDS011;3764;48.126;11.594;2022-09-21T09:23:08;1.35;;;1.20;;
7444;SDS011;3764;48.126;11.594;2022-09-21T09:25:41;2.65;;;1.73;;
7444;SDS011;3764;48.126;11.594;2022-09-21T09:28:16;3.20;;;1.42;;
7444;SDS011;3764;48.126;11.594;2022-09-21T09:30:53;3.28;;;1.50;;
7444;SDS011;3764;48.126;11.594;2022-09-21T09:33:25;2.10;;;1.27;;
7444;SDS011;3764;48.126;11.594;2022-09-21T09:35:57;3.55;;;1.80;;
7444;SDS011;3764;48.126;11.594;2022-09-21T09:38:29;1.63;;;1.50;;
7444;SDS011;3764;48.126;11.594;2022-09-21T09:41:10;2.00;;;1.38;;
7444;SDS011;3764;48.126;11.594;2022-09-21T09:44:04;3.65;;;1.90;;
7444;SDS011;3764;48.126;11.594;2022-09-21T09:46:48;2.45;;;1.55;;
7444;SDS011;3764;48.126;11.594;2022-09-21T09:49:27;2.60;;;1.33;;
7444;SDS011;3764;48.126;11.594;2022-09-21T09:52:02;1.92;;;1.42;;
7444;SDS011;3764;48.126;11.594;2022-09-21T09:54:32;1.55;;;1.10;;
7444;SDS011;3764;48.126;11.594;2022-09-21T09:57:02;2.50;;;1.40;;
7444;SDS011;3764;48.126;11.594;2022-09-21T09:59:33;2.08;;;1.10;;
7444;SDS011;3764;48.126;11.594;2022-09-21T10:02:04;1.58;;;1.00;;
7444;SDS011;3764;48.126;11.594;2022-09-21T10:04:33;2.53;;;1.23;;
7444;SDS011;3764;48.126;11.594;2022-09-21T10:07:00;3.00;;;1.35;;
7444;SDS011;3764;48.126;11.594;2022-09-21T10:09:27;6.28;;;1.73;;
7444;SDS011;3764;48.126;11.594;2022-09-21T10:11:57;1.50;;;1.40;;
7444;SDS011;3764;48.126;11.594;2022-09-21T10:14:29;2.20;;;0.90;;
7444;SDS011;3764;48.126;11.594;2022-09-21T10:17:00;1.85;;;1.30;;
7444;SDS011;3764;48.126;11.594;2022-09-21T10:19:31;1.17;;;0.70;;
7444;SDS011;3764;48.126;11.594;2022-09-21T10:21:59;2.22;;;1.10;;
7444;SDS011;3764;48.126;11.594;2022-09-21T10:24:28;2.33;;;1.67;;
7444;SDS011;3764;48.126;11.594;2022-09-21T10:27:01;1.85;;;1.70;;
7444;SDS011;3764;48.126;11.594;2022-09-21T10:29:38;3.63;;;1.55;;
7444;SDS011;3764;48.126;11.594;2022-09-21T10:32:17;4.68;;;1.45;;
7444;SDS011;3764;48.126;11.594;2022-09-21T10:37:42;1.80;;;1.15;;
7444;SDS011;3764;48.126;11.594;2022-09-21T10:40:26;3.03;;;1.65;;
7444;SDS011;3764;48.126;11.594;2022-09-21T10:42:55;1.92;;;1.20;;
7444;SDS011;3764;48.126;11.594;2022-09-21T10:45:26;2.30;;;1.33;;
7444;SDS011;3764;48.126;11.594;2022-09-21T10:47:56;2.40;;;1.33;;
7444;SDS011;3764;48.126;11.594;2022-09-21T10:50:25;2.67;;;1.05;;
7444;SDS011;3764;48.126;11.594;2022-09-21T10:52:56;3.35;;;1.20;;
7444;SDS011;3764;48.126;11.594;2022-09-21T10:55:25;1.88;;;1.30;;
7444;SDS011;3764;48.126;11.594;2022-09-21T10:57:56;1.80;;;1.27;;
7444;SDS011;3764;48.126;11.594;2022-09-21T11:00:33;6.55;;;1.23;;
7444;SDS011;3764;48.126;11.594;2022-09-21T11:05:58;1.52;;;1.00;;
7444;SDS011;3764;48.126;11.594;2022-09-21T11:08:29;1.95;;;1.27;;
7444;SDS011;3764;48.126;11.594;2022-09-21T11:11:15;2.97;;;1.52;;
7444;SDS011;3764;48.126;11.594;2022-09-21T11:13:57;1.38;;;0.90;;
7444;SDS011;3764;48.126;11.594;2022-09-21T11:16:35;2.65;;;1.80;;
7444;SDS011;3764;48.126;11.594;2022-09-21T11:19:11;1.98;;;1.05;;
7444;SDS011;3764;48.126;11.594;2022-09-21T11:21:46;1.73;;;1.30;;
7444;SDS011;3764;48.126;11.594;2022-09-21T11:24:19;1.58;;;0.90;;
7444;SDS011;3764;48.126;11.594;2022-09-21T11:26:52;1.20;;;0.90;;
7444;SDS011;3764;48.126;11.594;2022-09-21T11:29:25;2.22;;;1.25;;
7444;SDS011;3764;48.126;11.594;2022-09-21T11:32:04;1.83;;;0.98;;
7444;SDS011;3764;48.126;11.594;2022-09-21T11:37:48;2.65;;;1.42;;
7444;SDS011;3764;48.126;11.594;2022-09-21T11:40:32;1.70;;;1.15;;
7444;SDS011;3764;48.126;11.594;2022-09-21T11:43:10;2.00;;;0.98;;
7444;SDS011;3764;48.126;11.594;2022-09-21T11:45:55;1.73;;;1.30;;
7444;SDS011;3764;48.126;11.594;2022-09-21T11:48:38;1.48;;;1.05;;
7444;SDS011;3764;48.126;11.594;2022-09-21T11:51:18;2.20;;;1.20;;
7444;SDS011;3764;48.126;11.594;2022-09-21T11:54:08;2.15;;;1.40;;
7444;SDS011;3764;48.126;11.594;2022-09-21T11:56:54;1.80;;;1.23;;
7444;SDS011;3764;48.126;11.594;2022-09-21T11:59:29;2.00;;;1.10;;
7444;SDS011;3764;48.126;11.594;2022-09-21T12:02:25;2.03;;;1.00;;
7444;SDS011;3764;48.126;11.594;2022-09-21T12:05:13;2.03;;;1.20;;
7444;SDS011;3764;48.126;11.594;2022-09-21T12:07:57;2.10;;;1.10;;
7444;SDS011;3764;48.126;11.594;2022-09-21T12:10:38;1.80;;;1.10;;
7444;SDS011;3764;48.126;11.594;2022-09-21T12:13:13;3.65;;;1.52;;
7444;SDS011;3764;48.126;11.594;2022-09-21T12:15:52;1.60;;;1.05;;
7444;SDS011;3764;48.126;11.594;2022-09-21T12:18:28;1.25;;;0.70;;
7444;SDS011;3764;48.126;11.594;2022-09-21T12:21:03;1.75;;;1.02;;
7444;SDS011;3764;48.126;11.594;2022-09-21T12:23:40;1.50;;;0.80;;
7444;SDS011;3764;48.126;11.594;2022-09-21T12:26:12;1.40;;;1.10;;
7444;SDS011;3764;48.126;11.594;2022-09-21T12:28:44;4.43;;;1.55;;
7444;SDS011;3764;48.126;11.594;2022-09-21T12:31:17;2.15;;;1.33;;
7444;SDS011;3764;48.126;11.594;2022-09-21T12:33:49;2.05;;;0.93;;
7444;SDS011;3764;48.126;11.594;2022-09-21T12:36:20;3.25;;;1.00;;
7444;SDS011;3764;48.126;11.594;2022-09-21T12:38:54;2.30;;;1.00;;
7444;SDS011;3764;48.126;11.594;2022-09-21T12:41:29;1.80;;;0.90;;
7444;SDS011;3764;48.126;11.594;2022-09-21T12:44:03;2.15;;;1.50;;
7444;SDS011;3764;48.126;11.594;2022-09-21T12:46:42;2.50;;;0.93;;
7444;SDS011;3764;48.126;11.594;2022-09-21T12:49:13;1.20;;;0.80;;
7444;SDS011;3764;48.126;11.594;2022-09-21T12:51:47;1.50;;;0.90;;
7444;SDS011;3764;48.126;11.594;2022-09-21T12:54:22;2.90;;;1.15;;
7444;SDS011;3764;48.126;11.594;2022-09-21T12:56:55;1.20;;;0.70;;
7444;SDS011;3764;48.126;11.594;2022-09-21T12:59:33;1.30;;;0.80;;
7444;SDS011;3764;48.126;11.594;2022-09-21T13:02:12;3.55;;;0.93;;
7444;SDS011;3764;48.126;11.594;2022-09-21T13:04:48;1.52;;;0.80;;
7444;SDS011;3764;48.126;11.594;2022-09-21T13:10:37;5.30;;;1.55;;
7444;SDS011;3764;48.126;11.594;2022-09-21T13:13:13;3.28;;;1.13;;
7444;SDS011;3764;48.126;11.594;2022-09-21T13:15:48;1.20;;;0.88;;
7444;SDS011;3764;48.126;11.594;2022-09-21T13:18:17;3.90;;;2.95;;
7444;SDS011;3764;48.126;11.594;2022-09-21T13:20:47;3.17;;;0.95;;
7444;SDS011;3764;48.126;11.594;2022-09-21T13:23:17;1.77;;;0.82;;
7444;SDS011;3764;48.126;11.594;2022-09-21T13:25:57;2.75;;;0.88;;
7444;SDS011;3764;48.126;11.594;2022-09-21T13:28:38;2.33;;;1.10;;
7444;SDS011;3764;48.126;11.594;2022-09-21T13:34:24;1.67;;;1.35;;
7444;SDS011;3764;48.126;11.594;2022-09-21T13:43:18;2.17;;;1.02;;
7444;SDS011;3764;48.126;11.594;2022-09-21T13:45:50;1.75;;;0.90;;
7444;SDS011;3764;48.126;11.594;2022-09-21T13:48:23;2.13;;;1.00;;
7444;SDS011;3764;48.126;11.594;2022-09-21T13:50:57;1.10;;;0.80;;
7444;SDS011;3764;48.126;11.594;2022-09-21T13:53:32;3.42;;;0.80;;
7444;SDS011;3764;48.126;11.594;2022-09-21T13:58:49;2.00;;;1.00;;
7444;SDS011;3764;48.126;11.594;2022-09-21T14:01:18;1.40;;;0.88;;
7444;SDS011;3764;48.126;11.594;2022-09-21T14:03:48;2.65;;;0.98;;
7444;SDS011;3764;48.126;11.594;2022-09-21T14:06:19;1.60;;;0.90;;
7444;SDS011;3764;48.126;11.594;2022-09-21T14:08:50;3.55;;;0.90;;
7444;SDS011;3764;48.126;11.594;2022-09-21T14:11:21;2.13;;;1.00;;
7444;SDS011;3764;48.126;11.594;2022-09-21T14:14:01;1.58;;;0.95;;
7444;SDS011;3764;48.126;11.594;2022-09-21T14:16:53;1.50;;;1.00;;
7444;SDS011;3764;48.126;11.594;2022-09-21T14:22:39;1.70;;;0.80;;
7444;SDS011;3764;48.126;11.594;2022-09-21T14:25:29;2.95;;;1.10;;
7444;SDS011;3764;48.126;11.594;2022-09-21T14:28:18;2.30;;;1.40;;
7444;SDS011;3764;48.126;11.594;2022-09-21T14:30:56;1.92;;;0.65;;
7444;SDS011;3764;48.126;11.594;2022-09-21T14:33:29;1.25;;;0.90;;
7444;SDS011;3764;48.126;11.594;2022-09-21T14:36:03;1.05;;;0.75;;
7444;SDS011;3764;48.126;11.594;2022-09-21T14:38:35;1.10;;;0.80;;
7444;SDS011;3764;48.126;11.594;2022-09-21T14:41:10;3.97;;;1.13;;
7444;SDS011;3764;48.126;11.594;2022-09-21T14:43:46;1.88;;;0.90;;
7444;SDS011;3764;48.126;11.594;2022-09-21T14:46:30;1.67;;;0.95;;
7444;SDS011;3764;48.126;11.594;2022-09-21T14:49:18;1.60;;;1.00;;
7444;SDS011;3764;48.126;11.594;2022-09-21T14:52:02;4.75;;;1.10;;
7444;SDS011;3764;48.126;11.594;2022-09-21T14:54:41;1.10;;;0.73;;
7444;SDS011;3764;48.126;11.594;2022-09-21T14:57:20;1.67;;;0.90;;
7444;SDS011;3764;48.126;11.594;2022-09-21T15:00:07;1.30;;;0.82;;
7444;SDS011;3764;48.126;11.594;2022-09-21T15:02:53;1.05;;;0.70;;
7444;SDS011;3764;48.126;11.594;2022-09-21T15:05:35;1.10;;;0.73;;
7444;SDS011;3764;48.126;11.594;2022-09-21T15:08:23;1.50;;;0.80;;
7444;SDS011;3764;48.126;11.594;2022-09-21T15:11:23;1.38;;;0.85;;
7444;SDS011;3764;48.126;11.594;2022-09-21T15:14:01;3.50;;;0.90;;
7444;SDS011;3764;48.126;11.594;2022-09-21T15:16:40;1.83;;;0.90;;
7444;SDS011;3764;48.126;11.594;2022-09-21T15:19:12;1.45;;;0.90;;
7444;SDS011;3764;48.126;11.594;2022-09-21T15:21:46;2.45;;;1.20;;
7444;SDS011;3764;48.126;11.594;2022-09-21T15:27:04;6.35;;;3.75;;
7444;SDS011;3764;48.126;11.594;2022-09-21T15:29:34;2.35;;;1.80;;
7444;SDS011;3764;48.126;11.594;2022-09-21T15:32:02;4.43;;;2.60;;
7444;SDS011;3764;48.126;11.594;2022-09-21T15:34:32;3.20;;;1.70;;
7444;SDS011;3764;48.126;11.594;2022-09-21T15:37:06;1.48;;;1.00;;
7444;SDS011;3764;48.126;11.594;2022-09-21T15:39:41;1.88;;;0.88;;
7444;SDS011;3764;48.126;11.594;2022-09-21T15:42:14;1.70;;;1.15;;
7444;SDS011;3764;48.126;11.594;2022-09-21T15:44:44;2.97;;;1.40;;
7444;SDS011;3764;48.126;11.594;2022-09-21T15:47:15;2.28;;;1.30;;
7444;SDS011;3764;48.126;11.594;2022-09-21T15:49:46;2.58;;;1.30;;
7444;SDS011;3764;48.126;11.594;2022-09-21T15:52:21;2.25;;;1.05;;
7444;SDS011;3764;48.126;11.594;2022-09-21T15:54:57;2.72;;;1.10;;
7444;SDS011;3764;48.126;11.594;2022-09-21T15:57:30;2.75;;;1.33;;
7444;SDS011;3764;48.126;11.594;2022-09-21T16:00:01;1.83;;;1.30;;
7444;SDS011;3764;48.126;11.594;2022-09-21T16:02:33;1.50;;;1.00;;